sensor_id;sensor_type;location;lat;lon;timestamp;P1;durP1;ratioP1;P2;durP2;ratioP2
44048;SDS011;29717;47.028;15.470;2023-09-19T00:01:08;11.63;;;7.97;;
44048;SDS011;29717;47.028;15.470;2023-09-19T00:03:39;9.85;;;8.00;;
44048;SDS011;29717;47.028;15.470;2023-09-19T00:06:07;10.23;;;7.47;;
44048;SDS011;29717;47.028;15.470;2023-09-19T00:08:34;12.23;;;8.13;;
44048;SDS011;29717;47.028;15.470;2023-09-19T00:11:01;16.75;;;7.30;;
44048;SDS011;29717;47.028;15.470;2023-09-19T00:13:29;13.10;;;7.15;;
44048;SDS011;29717;47.028;15.470;2023-09-19T00:15:56;13.52;;;8.20;;
44048;SDS011;29717;47.028;15.470;2023-09-19T00:18:24;13.00;;;7.22;;
44048;SDS011;29717;47.028;15.470;2023-09-19T00:20:58;11.68;;;7.28;;
44048;SDS011;29717;47.028;15.470;2023-09-19T00:23:25;11.82;;;7.03;;
44048;SDS011;29717;47.028;15.470;2023-09-19T00:25:52;10.13;;;7.57;;
44048;SDS011;29717;47.028;15.470;2023-09-19T00:28:22;12.95;;;7.50;;
44048;SDS011;29717;47.028;15.470;2023-09-19T00:30:49;14.10;;;7.13;;
44048;SDS011;29717;47.028;15.470;2023-09-19T00:33:16;10.00;;;6.75;;
44048;SDS011;29717;47.028;15.470;2023-09-19T00:35:47;12.60;;;7.38;;
44048;SDS011;29717;47.028;15.470;2023-09-19T00:38:16;10.57;;;6.50;;
44048;SDS011;29717;47.028;15.470;2023-09-19T00:40:45;9.57;;;6.95;;
44048;SDS011;29717;47.028;15.470;2023-09-19T00:43:12;11.70;;;6.63;;
44048;SDS011;29717;47.028;15.470;2023-09-19T00:45:39;10.73;;;6.82;;
44048;SDS011;29717;47.028;15.470;2023-09-19T00:48:08;11.25;;;5.90;;
44048;SDS011;29717;47.028;15.470;2023-09-19T00:50:36;19.35;;;6.60;;
44048;SDS011;29717;47.028;15.470;2023-09-19T00:53:02;9.90;;;6.43;;
44048;SDS011;29717;47.028;15.470;2023-09-19T00:55:34;11.60;;;6.28;;
44048;SDS011;29717;47.028;15.470;2023-09-19T00:58:02;10.57;;;6.22;;
44048;SDS011;29717;47.028;15.470;2023-09-19T01:00:31;10.27;;;6.03;;
44048;SDS011;29717;47.028;15.470;2023-09-19T01:02:59;9.05;;;5.97;;
44048;SDS011;29717;47.028;15.470;2023-09-19T01:05:26;14.73;;;6.32;;
44048;SDS011;29717;47.028;15.470;2023-09-19T01:07:53;10.32;;;5.40;;
44048;SDS011;29717;47.028;15.470;2023-09-19T01:10:20;9.88;;;5.78;;
44048;SDS011;29717;47.028;15.470;2023-09-19T01:12:51;10.20;;;5.53;;
44048;SDS011;29717;47.028;15.470;2023-09-19T01:15:25;11.18;;;5.43;;
44048;SDS011;29717;47.028;15.470;2023-09-19T01:17:57;9.35;;;5.78;;
44048;SDS011;29717;47.028;15.470;2023-09-19T01:20:28;9.27;;;5.15;;
44048;SDS011;29717;47.028;15.470;2023-09-19T01:23:06;7.90;;;5.25;;
44048;SDS011;29717;47.028;15.470;2023-09-19T01:28:30;8.05;;;5.68;;
44048;SDS011;29717;47.028;15.470;2023-09-19T01:30:59;8.13;;;5.28;;
44048;SDS011;29717;47.028;15.470;2023-09-19T01:33:28;9.68;;;5.60;;
44048;SDS011;29717;47.028;15.470;2023-09-19T01:35:59;8.50;;;5.35;;
44048;SDS011;29717;47.028;15.470;2023-09-19T01:38:25;8.02;;;5.28;;
44048;SDS011;29717;47.028;15.470;2023-09-19T01:40:56;7.40;;;5.07;;
44048;SDS011;29717;47.028;15.470;2023-09-19T01:43:25;9.63;;;5.35;;
44048;SDS011;29717;47.028;15.470;2023-09-19T01:45:55;9.57;;;5.40;;
44048;SDS011;29717;47.028;15.470;2023-09-19T01:48:28;13.10;;;5.65;;
44048;SDS011;29717;47.028;15.470;2023-09-19T01:51:00;7.13;;;4.82;;
44048;SDS011;29717;47.028;15.470;2023-09-19T01:53:28;8.82;;;5.63;;
44048;SDS011;29717;47.028;15.470;2023-09-19T01:55:57;7.07;;;4.57;;
44048;SDS011;29717;47.028;15.470;2023-09-19T01:58:26;12.23;;;5.47;;
44048;SDS011;29717;47.028;15.470;2023-09-19T02:00:53;8.15;;;5.00;;
44048;SDS011;29717;47.028;15.470;2023-09-19T02:03:21;10.85;;;4.65;;
44048;SDS011;29717;47.028;15.470;2023-09-19T02:05:50;8.73;;;5.07;;
44048;SDS011;29717;47.028;15.470;2023-09-19T02:08:19;7.75;;;4.45;;
44048;SDS011;29717;47.028;15.470;2023-09-19T02:10:46;7.18;;;4.10;;
44048;SDS011;29717;47.028;15.470;2023-09-19T02:13:14;9.15;;;4.53;;
44048;SDS011;29717;47.028;15.470;2023-09-19T02:15:42;9.15;;;4.38;;
44048;SDS011;29717;47.028;15.470;2023-09-19T02:18:10;8.20;;;4.60;;
44048;SDS011;29717;47.028;15.470;2023-09-19T02:20:37;6.78;;;4.13;;
44048;SDS011;29717;47.028;15.470;2023-09-19T02:23:06;6.85;;;4.60;;
44048;SDS011;29717;47.028;15.470;2023-09-19T02:25:33;7.90;;;4.35;;
44048;SDS011;29717;47.028;15.470;2023-09-19T02:28:00;5.93;;;3.88;;
44048;SDS011;29717;47.028;15.470;2023-09-19T02:30:29;6.43;;;3.80;;
44048;SDS011;29717;47.028;15.470;2023-09-19T02:32:56;7.05;;;3.90;;
44048;SDS011;29717;47.028;15.470;2023-09-19T02:35:22;10.95;;;3.85;;
44048;SDS011;29717;47.028;15.470;2023-09-19T02:37:50;9.23;;;4.20;;
44048;SDS011;29717;47.028;15.470;2023-09-19T02:40:18;7.07;;;3.80;;
44048;SDS011;29717;47.028;15.470;2023-09-19T02:42:45;6.53;;;3.63;;
44048;SDS011;29717;47.028;15.470;2023-09-19T02:45:14;7.07;;;3.40;;
44048;SDS011;29717;47.028;15.470;2023-09-19T02:47:42;6.30;;;3.40;;
44048;SDS011;29717;47.028;15.470;2023-09-19T02:50:09;4.60;;;3.38;;
44048;SDS011;29717;47.028;15.470;2023-09-19T02:52:37;6.18;;;3.08;;
44048;SDS011;29717;47.028;15.470;2023-09-19T02:55:04;8.13;;;2.97;;
44048;SDS011;29717;47.028;15.470;2023-09-19T02:57:33;5.18;;;3.08;;
44048;SDS011;29717;47.028;15.470;2023-09-19T02:59:59;4.78;;;2.97;;
44048;SDS011;29717;47.028;15.470;2023-09-19T03:02:27;4.25;;;2.72;;
44048;SDS011;29717;47.028;15.470;2023-09-19T03:04:58;5.07;;;2.70;;
44048;SDS011;29717;47.028;15.470;2023-09-19T03:07:26;6.28;;;2.95;;
44048;SDS011;29717;47.028;15.470;2023-09-19T03:09:52;4.82;;;3.03;;
44048;SDS011;29717;47.028;15.470;2023-09-19T03:12:20;5.20;;;2.70;;
44048;SDS011;29717;47.028;15.470;2023-09-19T03:14:49;4.70;;;2.80;;
44048;SDS011;29717;47.028;15.470;2023-09-19T03:17:17;6.50;;;2.85;;
44048;SDS011;29717;47.028;15.470;2023-09-19T03:19:45;7.35;;;3.25;;
44048;SDS011;29717;47.028;15.470;2023-09-19T03:22:12;4.10;;;2.60;;
44048;SDS011;29717;47.028;15.470;2023-09-19T03:24:39;5.03;;;2.60;;
44048;SDS011;29717;47.028;15.470;2023-09-19T03:27:08;3.28;;;2.20;;
44048;SDS011;29717;47.028;15.470;2023-09-19T03:29:35;2.75;;;2.03;;
44048;SDS011;29717;47.028;15.470;2023-09-19T03:32:04;5.60;;;2.40;;
44048;SDS011;29717;47.028;15.470;2023-09-19T03:34:31;2.70;;;1.88;;
44048;SDS011;29717;47.028;15.470;2023-09-19T03:36:57;4.13;;;2.00;;
44048;SDS011;29717;47.028;15.470;2023-09-19T03:39:24;3.83;;;1.90;;
44048;SDS011;29717;47.028;15.470;2023-09-19T03:41:51;2.38;;;1.63;;
44048;SDS011;29717;47.028;15.470;2023-09-19T03:44:18;3.05;;;1.58;;
44048;SDS011;29717;47.028;15.470;2023-09-19T03:46:44;2.22;;;1.50;;
44048;SDS011;29717;47.028;15.470;2023-09-19T03:49:13;2.70;;;1.27;;
44048;SDS011;29717;47.028;15.470;2023-09-19T03:51:40;3.92;;;1.73;;
44048;SDS011;29717;47.028;15.470;2023-09-19T03:54:07;1.67;;;1.30;;
44048;SDS011;29717;47.028;15.470;2023-09-19T03:56:34;3.08;;;1.50;;
44048;SDS011;29717;47.028;15.470;2023-09-19T03:59:00;1.55;;;1.33;;
44048;SDS011;29717;47.028;15.470;2023-09-19T04:01:28;2.53;;;1.58;;
44048;SDS011;29717;47.028;15.470;2023-09-19T04:03:57;3.10;;;1.80;;
44048;SDS011;29717;47.028;15.470;2023-09-19T04:06:25;2.78;;;1.83;;
44048;SDS011;29717;47.028;15.470;2023-09-19T04:08:52;4.60;;;1.88;;
44048;SDS011;29717;47.028;15.470;2023-09-19T04:11:19;3.15;;;1.90;;
44048;SDS011;29717;47.028;15.470;2023-09-19T04:13:46;3.45;;;2.20;;
44048;SDS011;29717;47.028;15.470;2023-09-19T04:16:13;3.80;;;1.90;;
44048;SDS011;29717;47.028;15.470;2023-09-19T04:18:40;4.50;;;2.03;;
44048;SDS011;29717;47.028;15.470;2023-09-19T04:21:06;2.65;;;1.92;;
44048;SDS011;29717;47.028;15.470;2023-09-19T04:23:34;2.42;;;2.08;;
44048;SDS011;29717;47.028;15.470;2023-09-19T04:26:01;10.55;;;2.60;;
44048;SDS011;29717;47.028;15.470;2023-09-19T04:28:29;6.38;;;2.15;;
44048;SDS011;29717;47.028;15.470;2023-09-19T04:30:56;4.97;;;2.00;;
44048;SDS011;29717;47.028;15.470;2023-09-19T04:33:23;5.63;;;2.20;;
44048;SDS011;29717;47.028;15.470;2023-09-19T04:35:52;3.67;;;2.33;;
44048;SDS011;29717;47.028;15.470;2023-09-19T04:38:19;4.20;;;2.58;;
44048;SDS011;29717;47.028;15.470;2023-09-19T04:40:47;6.60;;;3.03;;
44048;SDS011;29717;47.028;15.470;2023-09-19T04:43:14;3.92;;;2.13;;
44048;SDS011;29717;47.028;15.470;2023-09-19T04:45:40;2.88;;;2.13;;
44048;SDS011;29717;47.028;15.470;2023-09-19T04:48:07;3.00;;;2.30;;
44048;SDS011;29717;47.028;15.470;2023-09-19T04:50:36;2.67;;;2.00;;
44048;SDS011;29717;47.028;15.470;2023-09-19T04:53:03;4.35;;;1.88;;
44048;SDS011;29717;47.028;15.470;2023-09-19T04:55:30;9.25;;;2.25;;
44048;SDS011;29717;47.028;15.470;2023-09-19T04:57:59;4.95;;;2.13;;
44048;SDS011;29717;47.028;15.470;2023-09-19T05:00:26;6.22;;;2.95;;
44048;SDS011;29717;47.028;15.470;2023-09-19T05:02:54;6.50;;;2.22;;
44048;SDS011;29717;47.028;15.470;2023-09-19T05:05:21;3.42;;;2.65;;
44048;SDS011;29717;47.028;15.470;2023-09-19T05:07:49;4.82;;;2.60;;
44048;SDS011;29717;47.028;15.470;2023-09-19T05:10:16;4.82;;;2.92;;
44048;SDS011;29717;47.028;15.470;2023-09-19T05:12:44;6.10;;;2.80;;
44048;SDS011;29717;47.028;15.470;2023-09-19T05:15:14;5.20;;;2.85;;
44048;SDS011;29717;47.028;15.470;2023-09-19T05:17:42;4.20;;;2.20;;
44048;SDS011;29717;47.028;15.470;2023-09-19T05:20:09;5.30;;;2.65;;
44048;SDS011;29717;47.028;15.470;2023-09-19T05:22:38;10.80;;;3.13;;
44048;SDS011;29717;47.028;15.470;2023-09-19T05:25:06;4.78;;;3.20;;
44048;SDS011;29717;47.028;15.470;2023-09-19T05:27:33;6.85;;;3.17;;
44048;SDS011;29717;47.028;15.470;2023-09-19T05:29:59;8.18;;;3.38;;
44048;SDS011;29717;47.028;15.470;2023-09-19T05:32:27;6.88;;;2.65;;
44048;SDS011;29717;47.028;15.470;2023-09-19T05:34:54;7.90;;;3.08;;
44048;SDS011;29717;47.028;15.470;2023-09-19T05:37:21;5.82;;;3.28;;
44048;SDS011;29717;47.028;15.470;2023-09-19T05:39:48;5.80;;;2.42;;
44048;SDS011;29717;47.028;15.470;2023-09-19T05:42:15;5.75;;;2.60;;
44048;SDS011;29717;47.028;15.470;2023-09-19T05:44:42;4.47;;;2.65;;
44048;SDS011;29717;47.028;15.470;2023-09-19T05:47:09;4.55;;;2.20;;
44048;SDS011;29717;47.028;15.470;2023-09-19T05:49:37;4.28;;;2.65;;
44048;SDS011;29717;47.028;15.470;2023-09-19T05:52:04;4.47;;;2.97;;
44048;SDS011;29717;47.028;15.470;2023-09-19T05:54:31;4.80;;;2.70;;
44048;SDS011;29717;47.028;15.470;2023-09-19T05:56:58;7.75;;;2.85;;
44048;SDS011;29717;47.028;15.470;2023-09-19T05:59:25;7.35;;;3.08;;
44048;SDS011;29717;47.028;15.470;2023-09-19T06:01:51;7.95;;;3.17;;
44048;SDS011;29717;47.028;15.470;2023-09-19T06:04:18;5.78;;;2.92;;
44048;SDS011;29717;47.028;15.470;2023-09-19T06:06:46;6.28;;;2.47;;
44048;SDS011;29717;47.028;15.470;2023-09-19T06:09:13;5.28;;;3.10;;
44048;SDS011;29717;47.028;15.470;2023-09-19T06:11:41;4.38;;;2.28;;
44048;SDS011;29717;47.028;15.470;2023-09-19T06:14:07;3.60;;;2.80;;
44048;SDS011;29717;47.028;15.470;2023-09-19T06:16:35;4.70;;;2.55;;
44048;SDS011;29717;47.028;15.470;2023-09-19T06:19:03;3.47;;;2.65;;
44048;SDS011;29717;47.028;15.470;2023-09-19T06:21:31;7.97;;;2.90;;
44048;SDS011;29717;47.028;15.470;2023-09-19T06:24:00;5.13;;;2.35;;
44048;SDS011;29717;47.028;15.470;2023-09-19T06:26:27;5.63;;;3.25;;
44048;SDS011;29717;47.028;15.470;2023-09-19T06:28:54;7.70;;;3.15;;
44048;SDS011;29717;47.028;15.470;2023-09-19T06:31:21;5.05;;;3.03;;
44048;SDS011;29717;47.028;15.470;2023-09-19T06:33:48;6.47;;;2.80;;
44048;SDS011;29717;47.028;15.470;2023-09-19T06:36:14;3.55;;;2.28;;
44048;SDS011;29717;47.028;15.470;2023-09-19T06:38:41;5.55;;;2.40;;
44048;SDS011;29717;47.028;15.470;2023-09-19T06:41:09;4.53;;;2.80;;
44048;SDS011;29717;47.028;15.470;2023-09-19T06:43:37;5.50;;;3.08;;
44048;SDS011;29717;47.028;15.470;2023-09-19T06:46:04;5.18;;;2.53;;
44048;SDS011;29717;47.028;15.470;2023-09-19T06:48:32;8.80;;;3.05;;
44048;SDS011;29717;47.028;15.470;2023-09-19T06:50:59;5.25;;;3.22;;
44048;SDS011;29717;47.028;15.470;2023-09-19T06:53:29;14.75;;;3.10;;
44048;SDS011;29717;47.028;15.470;2023-09-19T06:55:56;7.65;;;2.85;;
44048;SDS011;29717;47.028;15.470;2023-09-19T06:58:25;3.95;;;2.47;;
44048;SDS011;29717;47.028;15.470;2023-09-19T07:00:52;7.57;;;2.78;;
44048;SDS011;29717;47.028;15.470;2023-09-19T07:03:19;12.93;;;2.72;;
44048;SDS011;29717;47.028;15.470;2023-09-19T07:05:47;4.88;;;2.65;;
44048;SDS011;29717;47.028;15.470;2023-09-19T07:08:14;4.85;;;2.40;;
44048;SDS011;29717;47.028;15.470;2023-09-19T07:10:41;7.05;;;3.10;;
44048;SDS011;29717;47.028;15.470;2023-09-19T07:13:13;5.82;;;2.60;;
44048;SDS011;29717;47.028;15.470;2023-09-19T07:15:43;6.10;;;2.38;;
44048;SDS011;29717;47.028;15.470;2023-09-19T07:18:13;3.55;;;2.13;;
44048;SDS011;29717;47.028;15.470;2023-09-19T07:20:40;5.72;;;2.50;;
44048;SDS011;29717;47.028;15.470;2023-09-19T07:23:14;5.00;;;2.30;;
44048;SDS011;29717;47.028;15.470;2023-09-19T07:25:41;2.67;;;2.17;;
44048;SDS011;29717;47.028;15.470;2023-09-19T07:28:08;4.75;;;2.45;;
44048;SDS011;29717;47.028;15.470;2023-09-19T07:30:35;6.93;;;2.75;;
44048;SDS011;29717;47.028;15.470;2023-09-19T07:33:05;4.50;;;2.15;;
44048;SDS011;29717;47.028;15.470;2023-09-19T07:35:32;4.47;;;2.30;;
44048;SDS011;29717;47.028;15.470;2023-09-19T07:37:59;3.83;;;2.25;;
44048;SDS011;29717;47.028;15.470;2023-09-19T07:40:27;3.33;;;2.53;;
44048;SDS011;29717;47.028;15.470;2023-09-19T07:42:54;3.47;;;2.35;;
44048;SDS011;29717;47.028;15.470;2023-09-19T07:45:20;5.43;;;2.70;;
44048;SDS011;29717;47.028;15.470;2023-09-19T07:47:48;3.13;;;2.25;;
44048;SDS011;29717;47.028;15.470;2023-09-19T07:50:16;4.38;;;2.60;;
44048;SDS011;29717;47.028;15.470;2023-09-19T07:52:43;5.20;;;2.92;;
44048;SDS011;29717;47.028;15.470;2023-09-19T07:55:10;3.55;;;2.60;;
44048;SDS011;29717;47.028;15.470;2023-09-19T07:57:41;4.60;;;3.10;;
44048;SDS011;29717;47.028;15.470;2023-09-19T08:00:08;6.60;;;3.85;;
44048;SDS011;29717;47.028;15.470;2023-09-19T08:02:37;4.28;;;3.08;;
44048;SDS011;29717;47.028;15.470;2023-09-19T08:05:04;4.85;;;3.30;;
44048;SDS011;29717;47.028;15.470;2023-09-19T08:07:36;6.28;;;3.42;;
44048;SDS011;29717;47.028;15.470;2023-09-19T08:10:03;7.72;;;3.53;;
44048;SDS011;29717;47.028;15.470;2023-09-19T08:12:32;4.18;;;3.58;;
44048;SDS011;29717;47.028;15.470;2023-09-19T08:15:00;9.20;;;3.65;;
44048;SDS011;29717;47.028;15.470;2023-09-19T08:17:27;5.60;;;3.50;;
44048;SDS011;29717;47.028;15.470;2023-09-19T08:19:54;4.28;;;2.90;;
44048;SDS011;29717;47.028;15.470;2023-09-19T08:22:21;5.03;;;2.67;;
44048;SDS011;29717;47.028;15.470;2023-09-19T08:24:50;3.47;;;2.33;;
44048;SDS011;29717;47.028;15.470;2023-09-19T08:27:16;7.13;;;2.70;;
44048;SDS011;29717;47.028;15.470;2023-09-19T08:29:44;3.45;;;2.30;;
44048;SDS011;29717;47.028;15.470;2023-09-19T08:32:11;3.00;;;2.40;;
44048;SDS011;29717;47.028;15.470;2023-09-19T08:34:38;3.88;;;2.15;;
44048;SDS011;29717;47.028;15.470;2023-09-19T08:37:04;4.32;;;2.50;;
44048;SDS011;29717;47.028;15.470;2023-09-19T08:39:31;5.55;;;2.63;;
44048;SDS011;29717;47.028;15.470;2023-09-19T08:42:01;3.17;;;1.92;;
44048;SDS011;29717;47.028;15.470;2023-09-19T08:44:29;3.05;;;1.95;;
44048;SDS011;29717;47.028;15.470;2023-09-19T08:46:59;3.00;;;2.30;;
44048;SDS011;29717;47.028;15.470;2023-09-19T08:49:32;4.18;;;2.13;;
44048;SDS011;29717;47.028;15.470;2023-09-19T08:52:01;5.05;;;2.10;;
44048;SDS011;29717;47.028;15.470;2023-09-19T08:54:32;3.17;;;1.80;;
44048;SDS011;29717;47.028;15.470;2023-09-19T08:57:05;4.35;;;1.98;;
44048;SDS011;29717;47.028;15.470;2023-09-19T08:59:33;3.13;;;1.80;;
44048;SDS011;29717;47.028;15.470;2023-09-19T09:02:01;4.15;;;1.80;;
44048;SDS011;29717;47.028;15.470;2023-09-19T09:04:29;3.53;;;1.70;;
44048;SDS011;29717;47.028;15.470;2023-09-19T09:06:56;4.05;;;1.80;;
44048;SDS011;29717;47.028;15.470;2023-09-19T09:09:23;2.70;;;1.60;;
44048;SDS011;29717;47.028;15.470;2023-09-19T09:11:50;4.78;;;1.80;;
44048;SDS011;29717;47.028;15.470;2023-09-19T09:14:19;3.53;;;1.50;;
44048;SDS011;29717;47.028;15.470;2023-09-19T09:16:47;2.35;;;1.55;;
44048;SDS011;29717;47.028;15.470;2023-09-19T09:19:14;5.35;;;1.90;;
44048;SDS011;29717;47.028;15.470;2023-09-19T09:21:49;5.45;;;1.92;;
44048;SDS011;29717;47.028;15.470;2023-09-19T09:24:27;2.70;;;1.27;;
44048;SDS011;29717;47.028;15.470;2023-09-19T09:26:55;3.15;;;1.48;;
44048;SDS011;29717;47.028;15.470;2023-09-19T09:29:34;2.78;;;1.60;;
44048;SDS011;29717;47.028;15.470;2023-09-19T09:32:16;3.22;;;1.20;;
44048;SDS011;29717;47.028;15.470;2023-09-19T09:34:43;3.47;;;1.40;;
44048;SDS011;29717;47.028;15.470;2023-09-19T09:37:12;4.57;;;1.55;;
44048;SDS011;29717;47.028;15.470;2023-09-19T09:39:40;5.55;;;1.80;;
44048;SDS011;29717;47.028;15.470;2023-09-19T09:42:08;3.72;;;1.30;;
44048;SDS011;29717;47.028;15.470;2023-09-19T09:44:36;1.52;;;1.38;;
44048;SDS011;29717;47.028;15.470;2023-09-19T09:47:03;2.45;;;1.48;;
44048;SDS011;29717;47.028;15.470;2023-09-19T09:49:48;3.55;;;1.45;;
44048;SDS011;29717;47.028;15.470;2023-09-19T09:52:19;4.65;;;1.55;;
44048;SDS011;29717;47.028;15.470;2023-09-19T09:54:58;4.30;;;1.48;;
44048;SDS011;29717;47.028;15.470;2023-09-19T09:57:25;3.58;;;1.50;;
44048;SDS011;29717;47.028;15.470;2023-09-19T09:59:53;4.07;;;1.65;;
44048;SDS011;29717;47.028;15.470;2023-09-19T10:02:21;3.35;;;1.55;;
44048;SDS011;29717;47.028;15.470;2023-09-19T10:04:53;4.65;;;1.83;;
44048;SDS011;29717;47.028;15.470;2023-09-19T10:07:34;4.47;;;1.55;;
44048;SDS011;29717;47.028;15.470;2023-09-19T10:10:05;4.57;;;1.30;;
44048;SDS011;29717;47.028;15.470;2023-09-19T10:12:47;2.13;;;1.45;;
44048;SDS011;29717;47.028;15.470;2023-09-19T10:15:17;1.63;;;1.30;;
44048;SDS011;29717;47.028;15.470;2023-09-19T10:17:46;2.97;;;1.27;;
44048;SDS011;29717;47.028;15.470;2023-09-19T10:20:12;5.82;;;1.45;;
44048;SDS011;29717;47.028;15.470;2023-09-19T10:23:03;1.67;;;1.30;;
44048;SDS011;29717;47.028;15.470;2023-09-19T10:25:34;2.55;;;1.30;;
44048;SDS011;29717;47.028;15.470;2023-09-19T10:28:02;4.63;;;1.10;;
44048;SDS011;29717;47.028;15.470;2023-09-19T10:30:33;1.45;;;1.10;;
44048;SDS011;29717;47.028;15.470;2023-09-19T10:33:04;1.92;;;0.90;;
44048;SDS011;29717;47.028;15.470;2023-09-19T10:35:32;3.83;;;1.02;;
44048;SDS011;29717;47.028;15.470;2023-09-19T10:37:59;2.08;;;1.10;;
44048;SDS011;29717;47.028;15.470;2023-09-19T10:40:27;5.78;;;1.38;;
44048;SDS011;29717;47.028;15.470;2023-09-19T10:43:00;1.55;;;1.10;;
44048;SDS011;29717;47.028;15.470;2023-09-19T10:45:28;2.42;;;1.00;;
44048;SDS011;29717;47.028;15.470;2023-09-19T10:47:58;3.33;;;1.00;;
44048;SDS011;29717;47.028;15.470;2023-09-19T10:50:25;3.35;;;0.90;;
44048;SDS011;29717;47.028;15.470;2023-09-19T10:52:52;3.53;;;1.80;;
44048;SDS011;29717;47.028;15.470;2023-09-19T10:55:23;2.00;;;1.20;;
44048;SDS011;29717;47.028;15.470;2023-09-19T10:57:50;3.33;;;1.40;;
44048;SDS011;29717;47.028;15.470;2023-09-19T11:00:18;1.85;;;1.20;;
44048;SDS011;29717;47.028;15.470;2023-09-19T11:05:34;1.70;;;1.33;;
44048;SDS011;29717;47.028;15.470;2023-09-19T11:08:05;4.20;;;0.93;;
44048;SDS011;29717;47.028;15.470;2023-09-19T11:10:45;1.13;;;0.82;;
44048;SDS011;29717;47.028;15.470;2023-09-19T11:13:25;1.00;;;0.88;;
44048;SDS011;29717;47.028;15.470;2023-09-19T11:18:52;0.88;;;0.75;;
44048;SDS011;29717;47.028;15.470;2023-09-19T11:26:51;2.45;;;0.90;;
44048;SDS011;29717;47.028;15.470;2023-09-19T11:29:34;1.73;;;0.98;;
44048;SDS011;29717;47.028;15.470;2023-09-19T11:32:02;1.00;;;0.85;;
44048;SDS011;29717;47.028;15.470;2023-09-19T11:34:37;1.95;;;0.90;;
44048;SDS011;29717;47.028;15.470;2023-09-19T11:37:03;2.33;;;1.00;;
44048;SDS011;29717;47.028;15.470;2023-09-19T11:39:30;2.80;;;1.10;;
44048;SDS011;29717;47.028;15.470;2023-09-19T11:41:59;2.28;;;1.20;;
44048;SDS011;29717;47.028;15.470;2023-09-19T11:44:33;3.83;;;1.08;;
44048;SDS011;29717;47.028;15.470;2023-09-19T11:47:03;1.00;;;0.90;;
44048;SDS011;29717;47.028;15.470;2023-09-19T11:49:31;1.30;;;1.10;;
44048;SDS011;29717;47.028;15.470;2023-09-19T11:51:57;2.03;;;1.00;;
44048;SDS011;29717;47.028;15.470;2023-09-19T11:54:24;1.70;;;0.85;;
44048;SDS011;29717;47.028;15.470;2023-09-19T11:56:53;1.35;;;1.00;;
44048;SDS011;29717;47.028;15.470;2023-09-19T11:59:21;2.50;;;1.10;;
44048;SDS011;29717;47.028;15.470;2023-09-19T12:01:50;1.85;;;1.00;;
44048;SDS011;29717;47.028;15.470;2023-09-19T12:04:23;2.05;;;1.10;;
44048;SDS011;29717;47.028;15.470;2023-09-19T12:07:03;1.67;;;1.10;;
44048;SDS011;29717;47.028;15.470;2023-09-19T12:09:29;4.40;;;1.25;;
44048;SDS011;29717;47.028;15.470;2023-09-19T12:11:56;1.40;;;1.27;;
44048;SDS011;29717;47.028;15.470;2023-09-19T12:14:25;2.22;;;1.42;;
44048;SDS011;29717;47.028;15.470;2023-09-19T12:16:53;2.55;;;1.20;;
44048;SDS011;29717;47.028;15.470;2023-09-19T12:19:20;2.17;;;1.00;;
44048;SDS011;29717;47.028;15.470;2023-09-19T12:21:53;2.38;;;1.10;;
44048;SDS011;29717;47.028;15.470;2023-09-19T12:24:21;1.42;;;0.90;;
44048;SDS011;29717;47.028;15.470;2023-09-19T12:26:52;1.23;;;1.13;;
44048;SDS011;29717;47.028;15.470;2023-09-19T12:29:19;2.47;;;1.30;;
44048;SDS011;29717;47.028;15.470;2023-09-19T12:31:53;1.35;;;1.10;;
44048;SDS011;29717;47.028;15.470;2023-09-19T12:34:23;2.42;;;1.20;;
44048;SDS011;29717;47.028;15.470;2023-09-19T12:37:03;1.40;;;0.93;;
44048;SDS011;29717;47.028;15.470;2023-09-19T12:39:30;1.58;;;1.00;;
44048;SDS011;29717;47.028;15.470;2023-09-19T12:41:57;1.83;;;0.90;;
44048;SDS011;29717;47.028;15.470;2023-09-19T12:44:24;1.98;;;1.15;;
44048;SDS011;29717;47.028;15.470;2023-09-19T12:46:51;3.13;;;1.00;;
44048;SDS011;29717;47.028;15.470;2023-09-19T12:49:21;1.70;;;1.00;;
44048;SDS011;29717;47.028;15.470;2023-09-19T12:51:48;2.72;;;0.93;;
44048;SDS011;29717;47.028;15.470;2023-09-19T12:54:15;2.05;;;0.90;;
44048;SDS011;29717;47.028;15.470;2023-09-19T12:56:42;2.45;;;0.90;;
44048;SDS011;29717;47.028;15.470;2023-09-19T12:59:12;1.52;;;1.05;;
44048;SDS011;29717;47.028;15.470;2023-09-19T13:01:38;1.80;;;1.02;;
44048;SDS011;29717;47.028;15.470;2023-09-19T13:04:10;3.10;;;1.08;;
44048;SDS011;29717;47.028;15.470;2023-09-19T13:06:38;3.80;;;1.17;;
44048;SDS011;29717;47.028;15.470;2023-09-19T13:09:08;1.52;;;1.00;;
44048;SDS011;29717;47.028;15.470;2023-09-19T13:11:35;3.17;;;1.08;;
44048;SDS011;29717;47.028;15.470;2023-09-19T13:14:14;1.40;;;1.10;;
44048;SDS011;29717;47.028;15.470;2023-09-19T13:16:52;1.38;;;0.90;;
44048;SDS011;29717;47.028;15.470;2023-09-19T13:22:02;1.95;;;1.13;;
44048;SDS011;29717;47.028;15.470;2023-09-19T13:24:28;1.42;;;1.20;;
44048;SDS011;29717;47.028;15.470;2023-09-19T13:26:56;5.18;;;1.10;;
44048;SDS011;29717;47.028;15.470;2023-09-19T13:29:22;2.05;;;1.27;;
44048;SDS011;29717;47.028;15.470;2023-09-19T13:31:49;2.65;;;1.30;;
44048;SDS011;29717;47.028;15.470;2023-09-19T13:34:18;4.47;;;1.15;;
44048;SDS011;29717;47.028;15.470;2023-09-19T13:36:45;3.10;;;1.33;;
44048;SDS011;29717;47.028;15.470;2023-09-19T13:39:14;4.03;;;1.40;;
44048;SDS011;29717;47.028;15.470;2023-09-19T13:41:41;2.67;;;1.30;;
44048;SDS011;29717;47.028;15.470;2023-09-19T13:44:08;2.15;;;1.10;;
44048;SDS011;29717;47.028;15.470;2023-09-19T13:46:35;7.18;;;1.65;;
44048;SDS011;29717;47.028;15.470;2023-09-19T13:49:02;2.58;;;1.13;;
44048;SDS011;29717;47.028;15.470;2023-09-19T13:51:31;3.33;;;1.30;;
44048;SDS011;29717;47.028;15.470;2023-09-19T13:53:57;1.95;;;1.30;;
44048;SDS011;29717;47.028;15.470;2023-09-19T13:56:26;2.72;;;1.27;;
44048;SDS011;29717;47.028;15.470;2023-09-19T13:58:53;3.05;;;1.05;;
44048;SDS011;29717;47.028;15.470;2023-09-19T14:01:19;5.70;;;1.33;;
44048;SDS011;29717;47.028;15.470;2023-09-19T14:03:46;4.13;;;1.50;;
44048;SDS011;29717;47.028;15.470;2023-09-19T14:06:15;4.25;;;1.40;;
44048;SDS011;29717;47.028;15.470;2023-09-19T14:08:41;2.08;;;1.45;;
44048;SDS011;29717;47.028;15.470;2023-09-19T14:11:08;1.98;;;1.30;;
44048;SDS011;29717;47.028;15.470;2023-09-19T14:13:36;4.40;;;1.52;;
44048;SDS011;29717;47.028;15.470;2023-09-19T14:16:03;3.90;;;1.55;;
44048;SDS011;29717;47.028;15.470;2023-09-19T14:18:31;2.25;;;1.42;;
44048;SDS011;29717;47.028;15.470;2023-09-19T14:20:58;5.80;;;1.77;;
44048;SDS011;29717;47.028;15.470;2023-09-19T14:23:24;3.47;;;1.70;;
44048;SDS011;29717;47.028;15.470;2023-09-19T14:25:51;3.40;;;1.60;;
44048;SDS011;29717;47.028;15.470;2023-09-19T14:28:18;4.10;;;1.45;;
44048;SDS011;29717;47.028;15.470;2023-09-19T14:30:46;3.22;;;1.55;;
44048;SDS011;29717;47.028;15.470;2023-09-19T14:33:14;2.33;;;1.17;;
44048;SDS011;29717;47.028;15.470;2023-09-19T14:35:41;3.72;;;1.92;;
44048;SDS011;29717;47.028;15.470;2023-09-19T14:38:08;5.15;;;1.73;;
44048;SDS011;29717;47.028;15.470;2023-09-19T14:40:34;3.10;;;1.50;;
44048;SDS011;29717;47.028;15.470;2023-09-19T14:43:01;3.47;;;1.40;;
44048;SDS011;29717;47.028;15.470;2023-09-19T14:45:28;1.83;;;1.30;;
44048;SDS011;29717;47.028;15.470;2023-09-19T14:47:57;3.15;;;1.50;;
44048;SDS011;29717;47.028;15.470;2023-09-19T14:50:24;5.03;;;1.70;;
44048;SDS011;29717;47.028;15.470;2023-09-19T14:52:51;4.95;;;1.60;;
44048;SDS011;29717;47.028;15.470;2023-09-19T14:55:19;4.13;;;1.73;;
44048;SDS011;29717;47.028;15.470;2023-09-19T14:57:48;1.98;;;1.30;;